Clifton, Ohio
Current Conditions -  °F | °C
As of 9:56 PM on Monday 22 Dec 2014 (Local Time) from KSGH Reporting Station
Broken Clouds Broken Clouds  
Wind Chill: 38°   Ceiling: 12000
Heat Index: 44°   Visibility: 10mi
Dew Point: 37°   Wind: 13mph
Humidity: 76%   Direction: 120°ESE
Pressure: 29.78"   Gusts: NA
Location:  39.8°N, 83.83°W
Report Text: KSGH 230256Z AUTO 12011KT 10SM BKN120 07/03 A2978 RMK AO2 58015 T00660027 BKN V SCT SLP091
Loading
Personal Weather Stations






























Interactive Weather Map New forecast layout! Learn more

10-Day Weather Forecast

Advertisements
Track Severe Weather on mobile